Time,TemperatureF,DewpointF,PressureIn,WindDirection,WindDirectionDegrees,WindSpeedMPH,WindSpeedGustMPH,Humidity,HourlyPrecipIn,Conditions,Clouds,dailyrainin,SolarRadiationWatts/m^2,SoftwareType,DateUTC
2013-05-14 00:11:00,64.3,57.0,30.15,North,351,0.0,0.0,78,0.00,,,0.00,0,weatherlink.com 1.10,2013-05-14 04:11:00,
2013-05-14 00:26:00,63.3,57.0,30.15,North,351,0.0,0.0,81,0.00,,,0.00,0,weatherlink.com 1.10,2013-05-14 04:26:00,
2013-05-14 00:41:00,62.4,57.0,30.15,North,351,0.0,0.0,83,0.00,,,0.00,0,weatherlink.com 1.10,2013-05-14 04:41:00,
2013-05-14 00:56:00,61.5,56.0,30.15,North,351,0.0,0.0,83,0.00,,,0.00,0,weatherlink.com 1.10,2013-05-14 04:56:00,
2013-05-14 01:12:00,60.9,56.0,30.15,North,351,0.0,0.0,85,0.00,,,0.00,0,weatherlink.com 1.10,2013-05-14 05:12:00,
2013-05-14 01:27:00,60.4,57.0,30.15,North,351,0.0,0.0,87,0.00,,,0.00,0,weatherlink.com 1.10,2013-05-14 05:27:00,
2013-05-14 01:42:00,60.1,57.0,30.14,North,351,0.0,0.0,88,0.00,,,0.00,0,weatherlink.com 1.10,2013-05-14 05:42:00,
2013-05-14 01:56:00,59.8,57.0,30.14,North,351,0.0,0.0,89,0.00,,,0.00,0,weatherlink.com 1.10,2013-05-14 05:56:00,
2013-05-14 02:11:00,59.6,56.0,30.14,North,351,0.0,0.0,89,0.00,,,0.00,0,weatherlink.com 1.10,2013-05-14 06:11:00,
2013-05-14 02:26:00,59.5,57.0,30.14,North,351,0.0,1.0,90,0.00,,,0.00,0,weatherlink.com 1.10,2013-05-14 06:26:00,
2013-05-14 02:41:00,59.4,56.0,30.14,North,351,0.0,0.0,89,0.00,,,0.00,0,weatherlink.com 1.10,2013-05-14 06:41:00,
2013-05-14 02:57:00,59.2,56.0,30.14,North,351,0.0,0.0,90,0.00,,,0.00,0,weatherlink.com 1.10,2013-05-14 06:57:00,
2013-05-14 03:12:00,58.9,56.0,30.14,North,351,0.0,0.0,90,0.00,,,0.00,0,weatherlink.com 1.10,2013-05-14 07:12:00,
2013-05-14 03:27:00,58.5,56.0,30.14,North,351,0.0,0.0,90,0.00,,,0.00,0,weatherlink.com 1.10,2013-05-14 07:27:00,
2013-05-14 03:43:00,58.0,55.0,30.15,North,351,0.0,0.0,91,0.00,,,0.00,0,weatherlink.com 1.10,2013-05-14 07:43:00,
2013-05-14 03:57:00,57.7,55.0,30.15,North,351,0.0,0.0,92,0.00,,,0.00,0,weatherlink.com 1.10,2013-05-14 07:57:00,
2013-05-14 04:12:00,57.4,55.0,30.15,North,351,0.0,0.0,92,0.00,,,0.00,0,weatherlink.com 1.10,2013-05-14 08:12:00,
2013-05-14 04:27:00,57.2,55.0,30.14,North,351,0.0,0.0,93,0.00,,,0.00,0,weatherlink.com 1.10,2013-05-14 08:27:00,
2013-05-14 04:42:00,57.0,55.0,30.15,North,351,0.0,0.0,93,0.00,,,0.00,0,weatherlink.com 1.10,2013-05-14 08:42:00,
2013-05-14 04:58:00,56.8,55.0,30.15,North,351,0.0,0.0,93,0.00,,,0.00,0,weatherlink.com 1.10,2013-05-14 08:58:00,
2013-05-14 05:14:00,56.6,55.0,30.15,North,351,0.0,0.0,94,0.00,,,0.00,0,weatherlink.com 1.10,2013-05-14 09:14:00,
2013-05-14 05:28:00,56.4,55.0,30.14,North,351,0.0,0.0,94,0.00,,,0.00,0,weatherlink.com 1.10,2013-05-14 09:28:00,
2013-05-14 05:44:00,56.2,55.0,30.15,North,351,0.0,0.0,94,0.00,,,0.00,0,weatherlink.com 1.10,2013-05-14 09:44:00,
2013-05-14 05:58:00,56.0,54.0,30.16,North,351,0.0,0.0,94,0.00,,,0.00,0,weatherlink.com 1.10,2013-05-14 09:58:00,
2013-05-14 06:13:00,55.9,54.0,30.16,North,351,0.0,1.0,94,0.00,,,0.00,0,weatherlink.com 1.10,2013-05-14 10:13:00,
2013-05-14 06:28:00,55.9,55.0,30.17,North,351,0.0,1.0,95,0.00,,,0.00,0,weatherlink.com 1.10,2013-05-14 10:28:00,
2013-05-14 06:44:00,56.0,55.0,30.17,North,351,0.0,2.0,95,0.00,,,0.00,7,weatherlink.com 1.10,2013-05-14 10:44:00,
2013-05-14 06:59:00,56.2,55.0,30.18,NNW,338,1.0,3.0,95,0.00,,,0.00,16,weatherlink.com 1.10,2013-05-14 10:59:00,
2013-05-14 07:14:00,56.9,56.0,30.18,North,350,2.0,5.0,95,0.00,,,0.00,26,weatherlink.com 1.10,2013-05-14 11:14:00,
2013-05-14 07:30:00,58.0,57.0,30.18,North,360,3.0,5.0,95,0.00,,,0.00,137,weatherlink.com 1.10,2013-05-14 11:30:00,
2013-05-14 07:44:00,60.9,58.0,30.19,North,355,2.0,4.0,90,0.00,,,0.00,192,weatherlink.com 1.10,2013-05-14 11:44:00,
2013-05-14 08:00:00,64.5,59.0,30.19,NNE,19,2.0,4.0,83,0.00,,,0.00,243,weatherlink.com 1.10,2013-05-14 12:00:00,
2013-05-14 08:14:00,67.7,61.0,30.20,North,349,4.0,5.0,78,0.00,,,0.00,308,weatherlink.com 1.10,2013-05-14 12:14:00,
2013-05-14 08:30:00,70.2,61.0,30.20,North,360,0.0,5.0,72,0.00,,,0.00,381,weatherlink.com 1.10,2013-05-14 12:30:00,
2013-05-14 08:45:00,72.4,61.0,30.20,North,355,4.0,7.0,67,0.00,,,0.00,439,weatherlink.com 1.10,2013-05-14 12:45:00,
2013-05-14 09:01:00,74.3,60.0,30.20,NE,35,0.0,8.0,62,0.00,,,0.00,501,weatherlink.com 1.10,2013-05-14 13:01:00,
2013-05-14 09:15:00,76.1,61.0,30.20,NNW,344,2.0,6.0,60,0.00,,,0.00,555,weatherlink.com 1.10,2013-05-14 13:15:00,
2013-05-14 09:31:00,77.3,60.0,30.20,NNE,19,4.0,8.0,56,0.00,,,0.00,610,weatherlink.com 1.10,2013-05-14 13:31:00,
2013-05-14 09:45:00,78.2,61.0,30.20,ESE,114,0.0,6.0,56,0.00,,,0.00,657,weatherlink.com 1.10,2013-05-14 13:45:00,
2013-05-14 10:00:00,79.7,61.0,30.21,South,169,0.0,8.0,53,0.00,,,0.00,701,weatherlink.com 1.10,2013-05-14 14:00:00,
2013-05-14 10:15:00,79.2,60.0,30.22,NE,44,2.0,10.0,52,0.00,,,0.00,749,weatherlink.com 1.10,2013-05-14 14:15:00,
2013-05-14 10:31:00,80.1,58.0,30.22,NW,308,2.0,7.0,47,0.00,,,0.00,791,weatherlink.com 1.10,2013-05-14 14:31:00,
2013-05-14 10:46:00,79.9,58.0,30.22,ESE,114,2.0,9.0,47,0.00,,,0.00,833,weatherlink.com 1.10,2013-05-14 14:46:00,
2013-05-14 11:02:00,81.3,59.0,30.23,East,79,3.0,12.0,46,0.00,,,0.00,875,weatherlink.com 1.10,2013-05-14 15:02:00,
2013-05-14 11:16:00,80.8,57.0,30.23,East,86,5.0,9.0,44,0.00,,,0.00,898,weatherlink.com 1.10,2013-05-14 15:16:00,
2013-05-14 11:32:00,80.8,60.0,30.22,ESE,111,1.0,10.0,49,0.00,,,0.00,940,weatherlink.com 1.10,2013-05-14 15:32:00,
2013-05-14 11:47:00,81.3,60.0,30.22,North,9,7.0,12.0,48,0.00,,,0.00,976,weatherlink.com 1.10,2013-05-14 15:47:00,
2013-05-14 12:01:00,80.5,60.0,30.22,ESE,105,2.0,9.0,50,0.00,,,0.00,533,weatherlink.com 1.10,2013-05-14 16:01:00,
2013-05-14 12:16:00,80.6,61.0,30.22,ENE,67,4.0,10.0,51,0.00,,,0.00,1109,weatherlink.com 1.10,2013-05-14 16:16:00,
2013-05-14 12:33:00,81.3,59.0,30.22,North,5,4.0,7.0,46,0.00,,,0.00,1055,weatherlink.com 1.10,2013-05-14 16:33:00,
2013-05-14 12:48:00,79.8,59.0,30.22,ENE,76,3.0,8.0,50,0.00,,,0.00,1174,weatherlink.com 1.10,2013-05-14 16:48:00,
2013-05-14 13:02:00,80.0,62.0,30.22,NNW,348,0.0,10.0,54,0.00,,,0.00,255,weatherlink.com 1.10,2013-05-14 17:02:00,
2013-05-14 13:18:00,79.5,60.0,30.22,NNE,30,4.0,13.0,51,0.00,,,0.00,907,weatherlink.com 1.10,2013-05-14 17:18:00,
2013-05-14 13:33:00,81.4,62.0,30.22,NNW,346,4.0,8.0,52,0.00,,,0.00,1158,weatherlink.com 1.10,2013-05-14 17:33:00,
2013-05-14 13:48:00,81.0,59.0,30.21,NE,40,3.0,11.0,47,0.00,,,0.00,1093,weatherlink.com 1.10,2013-05-14 17:48:00,
2013-05-14 14:03:00,81.3,59.0,30.21,North,9,3.0,12.0,46,0.00,,,0.00,1076,weatherlink.com 1.10,2013-05-14 18:03:00,
2013-05-14 14:17:00,80.7,60.0,30.21,East,85,1.0,11.0,49,0.00,,,0.00,1118,weatherlink.com 1.10,2013-05-14 18:17:00,
2013-05-14 14:32:00,79.1,58.0,30.20,East,81,3.0,7.0,49,0.00,,,0.00,998,weatherlink.com 1.10,2013-05-14 18:32:00,
2013-05-14 14:47:00,79.8,59.0,30.20,East,99,2.0,11.0,50,0.00,,,0.00,1085,weatherlink.com 1.10,2013-05-14 18:47:00,
2013-05-14 15:05:00,80.4,59.0,30.20,ENE,74,7.0,10.0,49,0.00,,,0.00,926,weatherlink.com 1.10,2013-05-14 19:05:00,
2013-05-14 15:20:00,79.7,58.0,30.19,ESE,107,4.0,10.0,48,0.00,,,0.00,868,weatherlink.com 1.10,2013-05-14 19:20:00,
2013-05-14 15:33:00,80.6,59.0,30.18,NNW,331,4.0,10.0,48,0.00,,,0.00,877,weatherlink.com 1.10,2013-05-14 19:33:00,
2013-05-14 15:48:00,80.9,60.0,30.19,ENE,68,2.0,8.0,50,0.00,,,0.00,886,weatherlink.com 1.10,2013-05-14 19:48:00,
2013-05-14 16:04:00,80.1,59.0,30.18,NE,52,1.0,10.0,49,0.00,,,0.00,856,weatherlink.com 1.10,2013-05-14 20:04:00,
2013-05-14 16:18:00,79.4,59.0,30.18,ENE,75,8.0,9.0,50,0.00,,,0.00,213,weatherlink.com 1.10,2013-05-14 20:18:00,
2013-05-14 16:33:00,78.4,59.0,30.18,WNW,285,1.0,8.0,52,0.00,,,0.00,772,weatherlink.com 1.10,2013-05-14 20:33:00,
2013-05-14 16:48:00,77.4,58.0,30.18,ESE,115,3.0,10.0,52,0.00,,,0.00,475,weatherlink.com 1.10,2013-05-14 20:48:00,
2013-05-14 17:04:00,78.1,59.0,30.18,West,260,1.0,9.0,53,0.00,,,0.00,132,weatherlink.com 1.10,2013-05-14 21:04:00,
2013-05-14 17:19:00,78.1,58.0,30.18,ESE,119,2.0,10.0,51,0.00,,,0.00,72,weatherlink.com 1.10,2013-05-14 21:19:00,
2013-05-14 17:34:00,77.1,58.0,30.18,ENE,59,1.0,9.0,52,0.00,,,0.00,70,weatherlink.com 1.10,2013-05-14 21:34:00,
2013-05-14 17:49:00,76.8,58.0,30.18,NE,51,5.0,8.0,53,0.00,,,0.00,58,weatherlink.com 1.10,2013-05-14 21:49:00,
2013-05-14 18:04:00,76.6,58.0,30.18,ENE,66,4.0,7.0,52,0.00,,,0.00,47,weatherlink.com 1.10,2013-05-14 22:04:00,
2013-05-14 18:19:00,76.6,58.0,30.17,NE,47,4.0,11.0,52,0.00,,,0.00,42,weatherlink.com 1.10,2013-05-14 22:19:00,
2013-05-14 18:35:00,75.9,57.0,30.17,NNW,331,2.0,9.0,53,0.00,,,0.00,37,weatherlink.com 1.10,2013-05-14 22:35:00,
2013-05-14 18:49:00,75.3,57.0,30.17,NNW,335,1.0,9.0,53,0.00,,,0.00,32,weatherlink.com 1.10,2013-05-14 22:49:00,
2013-05-14 19:04:00,74.6,57.0,30.17,North,5,1.0,5.0,55,0.00,,,0.00,26,weatherlink.com 1.10,2013-05-14 23:04:00,
2013-05-14 19:19:00,74.0,57.0,30.17,ENE,60,2.0,6.0,55,0.00,,,0.00,21,weatherlink.com 1.10,2013-05-14 23:19:00,
2013-05-14 19:34:00,73.4,57.0,30.17,East,84,8.0,9.0,56,0.00,,,0.00,16,weatherlink.com 1.10,2013-05-14 23:34:00,
2013-05-14 19:50:00,72.6,56.0,30.17,East,86,0.0,5.0,57,0.00,,,0.00,9,weatherlink.com 1.10,2013-05-14 23:50:00,
2013-05-14 20:05:00,71.9,57.0,30.18,East,94,1.0,2.0,59,0.00,,,0.00,0,weatherlink.com 1.10,2013-05-15 00:05:00,
2013-05-14 20:20:00,70.9,57.0,30.18,NE,55,0.0,2.0,62,0.00,,,0.00,0,weatherlink.com 1.10,2013-05-15 00:20:00,
2013-05-14 20:35:00,69.8,57.0,30.18,NE,55,0.0,0.0,65,0.00,,,0.00,0,weatherlink.com 1.10,2013-05-15 00:35:00,
2013-05-14 20:50:00,68.6,58.0,30.19,NE,55,0.0,0.0,68,0.00,,,0.00,0,weatherlink.com 1.10,2013-05-15 00:50:00,
2013-05-14 21:05:00,67.5,58.0,30.19,NE,55,0.0,0.0,71,0.00,,,0.00,0,weatherlink.com 1.10,2013-05-15 01:05:00,
2013-05-14 21:20:00,66.5,57.0,30.20,NE,55,0.0,0.0,72,0.00,,,0.00,0,weatherlink.com 1.10,2013-05-15 01:20:00,
2013-05-14 21:35:00,65.6,58.0,30.20,NE,55,0.0,0.0,75,0.00,,,0.00,0,weatherlink.com 1.10,2013-05-15 01:35:00,
2013-05-14 21:50:00,64.8,57.0,30.21,NE,55,0.0,0.0,76,0.00,,,0.00,0,weatherlink.com 1.10,2013-05-15 01:50:00,
2013-05-14 22:06:00,64.0,57.0,30.21,NE,55,0.0,0.0,77,0.00,,,0.00,0,weatherlink.com 1.10,2013-05-15 02:06:00,
2013-05-14 22:21:00,63.3,56.0,30.21,NE,55,0.0,0.0,78,0.00,,,0.00,0,weatherlink.com 1.10,2013-05-15 02:21:00,
2013-05-14 22:36:00,62.7,56.0,30.22,NE,55,0.0,0.0,80,0.00,,,0.00,0,weatherlink.com 1.10,2013-05-15 02:36:00,
2013-05-14 22:51:00,62.3,56.0,30.22,NE,55,0.0,0.0,81,0.00,,,0.00,0,weatherlink.com 1.10,2013-05-15 02:51:00,
2013-05-14 23:06:00,61.9,57.0,30.22,NE,55,0.0,0.0,83,0.00,,,0.00,0,weatherlink.com 1.10,2013-05-15 03:06:00,
2013-05-14 23:21:00,61.5,56.0,30.22,NE,55,0.0,0.0,83,0.00,,,0.00,0,weatherlink.com 1.10,2013-05-15 03:21:00,
2013-05-14 23:36:00,61.1,56.0,30.22,NE,55,0.0,0.0,83,0.00,,,0.00,0,weatherlink.com 1.10,2013-05-15 03:36:00,
2013-05-14 23:51:00,60.8,56.0,30.22,NE,55,0.0,0.0,84,0.00,,,0.00,0,weatherlink.com 1.10,2013-05-15 03:51:00,